Time;durP1;ratioP1;P1;durP2;ratioP2;P2;SDS_P1;SDS_P2;PMS_P1;PMS_P2;Temp;Humidity;BMP_temperature;BMP_pressure;BME280_temperature;BME280_humidity;BME280_pressure;Samples;Min_cycle;Max_cycle;Signal;HPM_P1;HPM_P2
2021/11/01 00:00:36;;;;;;;11.00;4.73;;;10.00;99.90;;;;;;5017321;28;20442;-67
2021/11/01 00:03:04;;;;;;;19.93;5.20;;;10.00;99.90;;;;;;5017956;28;20455;-67
2021/11/01 00:05:30;;;;;;;17.27;4.90;;;10.00;99.90;;;;;;5018185;28;20449;-67
2021/11/01 00:07:57;;;;;;;10.83;5.03;;;9.90;99.90;;;;;;5033676;28;20476;-67
2021/11/01 00:10:24;;;;;;;12.33;4.50;;;9.80;99.90;;;;;;5040319;28;20475;-66
2021/11/01 00:12:51;;;;;;;8.20;3.90;;;9.80;99.90;;;;;;5040941;28;20445;-66
2021/11/01 00:15:18;;;;;;;17.43;5.53;;;9.80;99.90;;;;;;5040660;28;20449;-66
2021/11/01 00:17:46;;;;;;;16.23;5.13;;;9.70;99.90;;;;;;5023351;28;20484;-67
2021/11/01 00:20:13;;;;;;;10.33;3.83;;;9.70;99.90;;;;;;5016103;28;20457;-66
2021/11/01 00:22:40;;;;;;;16.50;7.20;;;9.70;99.90;;;;;;5014848;28;20445;-66
2021/11/01 00:25:09;;;;;;;15.00;4.80;;;9.70;99.90;;;;;;5015083;28;20453;-66
2021/11/01 00:27:36;;;;;;;10.13;3.80;;;9.60;99.90;;;;;;5057179;22;20544;-65
2021/11/01 00:30:05;;;;;;;14.33;6.00;;;9.60;99.90;;;;;;5014586;28;20450;-65
2021/11/01 00:32:31;;;;;;;12.40;3.80;;;9.60;99.90;;;;;;5026408;28;20452;-66
2021/11/01 00:35:00;;;;;;;14.40;3.93;;;9.50;99.90;;;;;;5034653;28;20445;-65
2021/11/01 00:37:27;;;;;;;18.10;5.00;;;9.50;99.90;;;;;;5023678;28;20487;-66
2021/11/01 00:39:55;;;;;;;12.80;5.00;;;9.50;99.90;;;;;;5014501;28;20457;-65
2021/11/01 00:42:22;;;;;;;12.23;4.30;;;9.50;99.90;;;;;;5024136;28;20445;-65
2021/11/01 00:44:49;;;;;;;10.90;4.50;;;9.50;99.90;;;;;;5034485;28;20448;-65
2021/11/01 00:47:16;;;;;;;5.90;2.80;;;9.50;99.90;;;;;;5025649;28;20477;-65
2021/11/01 00:49:43;;;;;;;9.53;4.20;;;9.50;99.90;;;;;;5014372;28;20449;-66
2021/11/01 00:52:12;;;;;;;11.70;4.60;;;9.40;99.90;;;;;;5021801;28;20452;-65
2021/11/01 00:54:40;;;;;;;11.50;5.17;;;9.40;99.90;;;;;;5032493;28;20506;-65
2021/11/01 00:57:07;;;;;;;15.27;4.50;;;9.40;99.90;;;;;;5014115;28;20486;-65
2021/11/01 00:59:34;;;;;;;14.70;4.67;;;9.30;99.90;;;;;;5014112;28;20973;-65
2021/11/01 01:02:00;;;;;;;11.33;4.20;;;9.30;99.90;;;;;;5014158;28;20454;-65
2021/11/01 01:04:27;;;;;;;10.63;5.30;;;9.30;99.90;;;;;;5014471;28;20452;-66
2021/11/01 01:06:54;;;;;;;4.27;2.80;;;9.30;99.90;;;;;;5018317;28;20472;-66
2021/11/01 01:09:22;;;;;;;6.73;2.60;;;9.20;99.90;;;;;;5033868;28;20445;-66
2021/11/01 01:11:49;;;;;;;9.50;3.40;;;9.20;99.90;;;;;;5032765;28;20456;-65
2021/11/01 01:14:17;;;;;;;14.53;3.63;;;9.20;99.90;;;;;;5016136;28;20454;-66
2021/11/01 01:16:45;;;;;;;8.40;3.50;;;9.20;99.90;;;;;;5013708;28;20820;-65
2021/11/01 01:19:18;;;;;;;11.00;3.83;;;9.20;99.90;;;;;;5013681;28;20488;-66
2021/11/01 01:24:31;;;;;;;13.67;4.67;;;9.20;99.90;;;;;;4994517;28;20426;-67
2021/11/01 01:26:58;;;;;;;12.00;5.20;;;9.20;99.90;;;;;;5001947;28;20492;-67
2021/11/01 01:29:25;;;;;;;13.90;5.87;;;9.20;99.90;;;;;;5033513;28;20445;-66
2021/11/01 01:31:52;;;;;;;19.80;4.90;;;9.20;99.90;;;;;;5033263;28;20631;-66
2021/11/01 01:34:19;;;;;;;15.43;6.00;;;9.20;99.90;;;;;;5033515;28;20445;-66
2021/11/01 01:36:46;;;;;;;23.30;6.60;;;9.10;99.90;;;;;;5031514;28;20476;-66
2021/11/01 01:39:13;;;;;;;8.33;4.87;;;9.10;99.90;;;;;;5013373;28;20477;-66
2021/11/01 01:41:45;;;;;;;18.73;4.77;;;9.10;99.90;;;;;;5013581;28;20445;-66
2021/11/01 01:44:12;;;;;;;4.67;3.00;;;9.10;99.90;;;;;;5013610;28;20461;-66
2021/11/01 01:46:39;;;;;;;10.50;3.83;;;9.10;99.90;;;;;;5013049;28;20470;-66
2021/11/01 01:49:06;;;;;;;12.07;3.37;;;9.10;99.90;;;;;;5013231;28;20438;-66
2021/11/01 01:51:33;;;;;;;12.60;3.50;;;9.10;99.90;;;;;;5013422;28;20446;-66
2021/11/01 01:54:01;;;;;;;11.23;5.33;;;9.10;99.90;;;;;;5013187;28;20807;-66
2021/11/01 01:56:28;;;;;;;18.50;5.37;;;9.10;99.90;;;;;;5013211;28;20446;-66
2021/11/01 01:59:07;;;;;;;12.00;3.50;;;9.00;99.90;;;;;;5030949;28;20481;-66
2021/11/01 02:01:34;;;;;;;9.80;2.90;;;9.00;99.90;;;;;;5032841;28;20881;-66
2021/11/01 02:04:02;;;;;;;14.33;3.57;;;8.90;99.90;;;;;;5032729;28;20453;-66
2021/11/01 02:06:40;;;;;;;8.60;2.73;;;8.90;99.90;;;;;;5032867;28;20444;-66
2021/11/01 02:09:11;;;;;;;7.90;3.60;;;8.90;99.90;;;;;;5013308;28;20944;-66
2021/11/01 02:11:46;;;;;;;14.10;4.10;;;9.00;99.90;;;;;;5013125;28;20943;-66
2021/11/01 02:14:17;;;;;;;7.40;3.80;;;8.90;99.90;;;;;;5032596;28;20457;-66
2021/11/01 02:16:44;;;;;;;10.33;5.17;;;8.90;99.90;;;;;;5032519;28;20465;-66
2021/11/01 02:19:16;;;;;;;4.67;2.97;;;9.00;99.90;;;;;;5013896;28;20478;-66
2021/11/01 02:21:49;;;;;;;9.93;2.70;;;9.00;99.90;;;;;;5027748;28;20897;-66
2021/11/01 02:24:29;;;;;;;9.10;3.07;;;9.00;99.90;;;;;;5032180;28;20456;-66
2021/11/01 02:26:58;;;;;;;12.07;4.53;;;9.00;99.90;;;;;;5032039;28;20844;-66
2021/11/01 02:29:26;;;;;;;14.30;3.00;;;9.00;99.90;;;;;;5032269;28;20448;-66
2021/11/01 02:31:54;;;;;;;7.90;2.67;;;8.90;99.90;;;;;;5032221;28;20449;-66
2021/11/01 02:34:21;;;;;;;9.53;4.40;;;8.90;99.90;;;;;;5032218;28;20457;-66
2021/11/01 02:36:48;;;;;;;7.80;2.53;;;8.90;99.90;;;;;;5032207;28;20465;-66
2021/11/01 02:39:15;;;;;;;7.57;2.80;;;8.90;99.90;;;;;;5031799;28;20516;-66
2021/11/01 02:41:43;;;;;;;15.93;3.80;;;8.90;99.90;;;;;;5032280;28;20455;-66
2021/11/01 02:44:11;;;;;;;5.40;3.20;;;8.90;99.90;;;;;;5014197;28;20850;-66
2021/11/01 02:46:40;;;;;;;8.27;2.80;;;8.90;99.90;;;;;;5012342;28;20469;-67
2021/11/01 02:49:07;;;;;;;7.90;2.73;;;8.90;99.90;;;;;;5012091;28;20455;-66
2021/11/01 02:51:34;;;;;;;12.13;3.87;;;8.90;99.90;;;;;;5012188;28;20958;-66
2021/11/01 02:54:02;;;;;;;26.33;4.77;;;8.80;99.90;;;;;;5028082;28;20956;-66
2021/11/01 02:56:29;;;;;;;6.80;2.53;;;8.80;99.90;;;;;;5031917;28;20474;-66
2021/11/01 02:58:56;;;;;;;6.87;2.90;;;8.80;99.90;;;;;;5031264;28;20862;-66
2021/11/01 03:01:25;;;;;;;8.50;2.40;;;8.80;99.90;;;;;;5031801;28;20441;-66
2021/11/01 03:03:52;;;;;;;12.63;3.27;;;8.80;99.90;;;;;;5017394;28;20461;-66
2021/11/01 03:06:23;;;;;;;6.27;3.30;;;8.80;99.90;;;;;;5011950;28;20445;-66
2021/11/01 03:08:51;;;;;;;10.47;3.20;;;8.80;99.90;;;;;;5025292;28;20813;-66
2021/11/01 03:11:18;;;;;;;8.33;2.83;;;8.80;99.90;;;;;;5031695;28;20457;-66
2021/11/01 03:13:46;;;;;;;13.67;3.30;;;8.80;99.90;;;;;;5018742;28;20485;-66
2021/11/01 03:16:14;;;;;;;7.47;3.00;;;8.80;99.90;;;;;;5011875;28;20449;-67
2021/11/01 03:18:49;;;;;;;7.53;3.33;;;8.80;99.90;;;;;;5023175;28;20477;-66
2021/11/01 03:21:17;;;;;;;5.97;3.07;;;8.70;99.90;;;;;;5031469;28;20455;-66
2021/11/01 03:23:48;;;;;;;9.87;3.20;;;8.70;99.90;;;;;;5019313;28;20477;-66
2021/11/01 03:26:19;;;;;;;5.83;2.63;;;8.70;99.90;;;;;;5011741;28;20450;-66
2021/11/01 03:28:50;;;;;;;19.83;3.40;;;8.70;99.90;;;;;;5023370;28;20452;-66
2021/11/01 03:31:20;;;;;;;8.90;3.13;;;8.70;99.90;;;;;;5031620;28;20835;-66
2021/11/01 03:33:51;;;;;;;7.43;3.07;;;8.70;99.90;;;;;;5018918;28;20958;-66
2021/11/01 03:36:18;;;;;;;6.03;2.80;;;8.70;99.90;;;;;;5011724;28;20442;-66
2021/11/01 03:38:46;;;;;;;6.03;3.40;;;8.70;99.90;;;;;;5011404;28;20774;-66
2021/11/01 03:41:16;;;;;;;7.90;4.17;;;8.70;99.90;;;;;;5011672;28;20446;-66
2021/11/01 03:43:45;;;;;;;8.37;3.83;;;8.70;99.90;;;;;;5022185;28;20450;-66
2021/11/01 03:46:12;;;;;;;5.90;3.30;;;8.70;99.90;;;;;;5031293;28;20547;-66
2021/11/01 03:48:43;;;;;;;7.30;3.60;;;8.70;99.90;;;;;;5020697;28;20569;-66
2021/11/01 03:51:14;;;;;;;4.37;2.73;;;8.70;99.90;;;;;;5011757;28;20552;-66
2021/11/01 03:53:41;;;;;;;6.27;4.47;;;8.80;99.90;;;;;;5021350;28;20797;-66
2021/11/01 03:56:09;;;;;;;6.60;3.40;;;8.80;99.90;;;;;;5031301;28;20536;-66
2021/11/01 03:58:37;;;;;;;7.63;3.33;;;8.80;99.90;;;;;;5021712;28;20489;-66
2021/11/01 04:01:04;;;;;;;7.23;2.70;;;8.80;99.90;;;;;;5011476;28;20446;-67
2021/11/01 04:03:31;;;;;;;3.50;3.20;;;8.80;99.90;;;;;;5019293;28;20452;-67
2021/11/01 04:06:02;;;;;;;5.90;2.63;;;8.80;99.90;;;;;;5031230;28;20451;-66
2021/11/01 04:08:30;;;;;;;6.10;2.60;;;8.80;99.90;;;;;;5023218;28;20501;-66
2021/11/01 04:10:57;;;;;;;10.63;3.00;;;8.80;99.90;;;;;;5011383;28;20831;-66
2021/11/01 04:13:24;;;;;;;6.47;3.10;;;8.80;99.90;;;;;;5011286;28;20474;-66
2021/11/01 04:15:56;;;;;;;4.37;2.50;;;8.80;99.90;;;;;;5011436;28;20875;-66
2021/11/01 04:18:28;;;;;;;4.67;3.13;;;8.80;99.90;;;;;;5017199;28;20489;-66
2021/11/01 04:20:55;;;;;;;5.57;3.27;;;8.80;99.90;;;;;;5031099;28;20499;-66
2021/11/01 04:23:27;;;;;;;4.67;2.50;;;8.90;99.90;;;;;;5025037;28;20446;-66
2021/11/01 04:25:58;;;;;;;4.30;3.23;;;8.90;99.90;;;;;;5011403;28;20881;-65
2021/11/01 04:28:24;;;;;;;6.60;3.83;;;8.90;99.90;;;;;;5016608;28;20504;-66
2021/11/01 04:30:57;;;;;;;7.83;2.80;;;8.90;99.90;;;;;;5030975;28;21004;-66
2021/11/01 04:33:26;;;;;;;7.17;3.10;;;8.90;99.90;;;;;;5025250;28;20512;-66
2021/11/01 04:35:53;;;;;;;4.60;3.07;;;9.00;99.90;;;;;;5011281;28;20512;-66
2021/11/01 04:38:30;;;;;;;6.17;2.73;;;9.00;99.90;;;;;;5010696;28;20934;-66
2021/11/01 04:41:06;;;;;;;8.03;4.33;;;9.00;99.90;;;;;;5011232;28;21023;-66
2021/11/01 04:54:35;;;;;;;5.80;4.90;;;9.00;99.90;;;;;;5019885;28;21030;-66
2021/11/01 04:57:04;;;;;;;15.53;5.00;;;8.90;99.90;;;;;;5014095;28;20465;-66
2021/11/01 04:59:32;;;;;;;6.17;4.27;;;8.90;99.90;;;;;;5027224;28;20484;-66
2021/11/01 05:01:59;;;;;;;6.70;4.80;;;8.80;99.90;;;;;;5034030;28;20476;-66
2021/11/01 05:04:28;;;;;;;4.50;3.90;;;8.90;99.90;;;;;;5021361;28;20458;-66
2021/11/01 05:06:59;;;;;;;7.53;3.50;;;8.90;99.90;;;;;;5014125;28;20893;-66
2021/11/01 05:09:28;;;;;;;6.00;3.90;;;8.80;99.90;;;;;;5013930;28;20450;-66
2021/11/01 05:12:01;;;;;;;6.50;3.47;;;8.70;99.90;;;;;;5014125;28;20449;-65
2021/11/01 05:14:34;;;;;;;5.07;2.40;;;8.80;99.90;;;;;;5026000;28;20449;-65
2021/11/01 05:17:17;;;;;;;9.73;4.73;;;8.70;99.90;;;;;;5033724;28;20515;-66
2021/11/01 05:19:49;;;;;;;2.97;2.67;;;8.80;99.90;;;;;;5033107;28;20480;-66
2021/11/01 05:22:22;;;;;;;4.87;2.37;;;8.70;99.90;;;;;;5033760;28;20484;-65
2021/11/01 05:24:53;;;;;;;4.27;2.93;;;8.70;99.90;;;;;;5019040;28;20449;-66
2021/11/01 05:30:19;;;;;;;10.23;4.53;;;8.70;99.90;;;;;;4952943;29;20523;-66
2021/11/01 05:32:55;;;;;;;8.27;5.17;;;8.60;99.90;;;;;;4999791;28;20493;-65
2021/11/01 05:35:23;;;;;;;7.27;2.80;;;8.60;99.90;;;;;;5013648;28;20445;-66
2021/11/01 05:37:50;;;;;;;5.10;2.97;;;8.60;99.90;;;;;;5013404;28;20462;-65
2021/11/01 05:40:17;;;;;;;7.77;2.40;;;8.70;99.90;;;;;;5013118;28;20482;-65
2021/11/01 05:42:45;;;;;;;9.83;4.10;;;8.60;99.90;;;;;;5013438;28;20442;-66
2021/11/01 05:45:11;;;;;;;6.03;4.90;;;8.60;99.90;;;;;;5013303;28;20465;-65
2021/11/01 05:47:43;;;;;;;5.17;3.10;;;8.60;99.90;;;;;;5013320;28;20466;-65
2021/11/01 05:50:10;;;;;;;4.33;2.43;;;8.60;99.90;;;;;;5013305;28;20889;-65
2021/11/01 05:52:37;;;;;;;5.90;2.70;;;8.60;99.90;;;;;;5013299;28;20507;-66
2021/11/01 05:55:17;;;;;;;6.90;3.57;;;8.60;99.90;;;;;;5013115;28;20533;-66
2021/11/01 05:57:59;;;;;;;5.37;2.87;;;8.50;99.90;;;;;;5012660;28;21066;-65
2021/11/01 06:00:40;;;;;;;7.03;3.30;;;8.50;99.90;;;;;;5013065;28;20478;-65
2021/11/01 06:03:12;;;;;;;9.67;3.63;;;8.50;99.90;;;;;;5013301;28;20931;-65
2021/11/01 06:05:58;;;;;;;4.73;2.23;;;8.50;99.90;;;;;;5031935;28;20479;-65
2021/11/01 06:08:39;;;;;;;8.93;3.43;;;8.50;99.90;;;;;;5032186;28;20465;-66
2021/11/01 06:13:51;;;;;;;4.93;2.57;;;8.50;99.90;;;;;;5028866;28;20815;-65
2021/11/01 06:16:18;;;;;;;12.60;3.63;;;8.50;99.90;;;;;;5012818;28;21251;-66
2021/11/01 06:18:46;;;;;;;7.70;3.40;;;8.40;99.90;;;;;;5012498;28;20489;-65
2021/11/01 06:21:15;;;;;;;7.93;3.50;;;8.40;99.90;;;;;;5012820;28;20485;-66
2021/11/01 06:23:42;;;;;;;5.77;2.50;;;8.40;99.90;;;;;;5014518;28;20442;-65
2021/11/01 06:26:09;;;;;;;7.40;2.20;;;8.40;99.90;;;;;;5032551;28;20452;-65
2021/11/01 06:28:40;;;;;;;6.47;2.50;;;8.40;99.90;;;;;;5032936;28;20484;-66
2021/11/01 06:31:10;;;;;;;2.80;2.60;;;8.50;99.90;;;;;;5033187;28;20793;-66
2021/11/01 06:44:47;;;;;;;2.83;2.20;;;8.60;99.90;;;;;;5012691;28;20445;-67
2021/11/01 06:50:15;;;;;;;7.37;2.70;;;8.70;99.90;;;;;;4964873;28;20517;-66
2021/11/01 06:55:57;;;;;;;8.67;2.43;;;8.80;99.90;;;;;;4954915;28;20920;-67
2021/11/01 06:58:33;;;;;;;4.77;2.77;;;8.80;99.90;;;;;;4937883;28;21025;-67
2021/11/01 07:14:53;;;;;;;5.07;2.60;;;9.30;99.90;;;;;;5020135;28;20777;-66
2021/11/01 07:17:28;;;;;;;11.50;3.27;;;9.40;99.90;;;;;;5021201;28;20917;-65
2021/11/01 07:20:11;;;;;;;6.37;4.07;;;9.40;99.90;;;;;;5020659;28;20490;-64
2021/11/01 07:23:06;;;;;;;10.03;3.67;;;9.50;99.90;;;;;;5021689;28;20544;-66
2021/11/01 08:20:54;;;;;;;4.73;4.20;;;10.70;99.90;;;;;;5018027;28;20487;-66
2021/11/01 08:40:07;;;;;;;8.53;7.80;;;11.70;99.90;;;;;;4993117;28;20925;-67
2021/11/01 08:42:45;;;;;;;17.70;8.30;;;11.70;99.90;;;;;;5014410;28;20869;-67
2021/11/01 08:48:28;;;;;;;7.87;7.27;;;11.70;99.90;;;;;;5003770;28;20531;-67
2021/11/01 09:04:49;;;;;;;11.20;10.70;;;12.40;99.90;;;;;;5018423;28;20429;-67
2021/11/01 09:10:18;;;;;;;11.57;10.90;;;12.70;99.90;;;;;;4981739;28;20697;-66
2021/11/01 09:21:17;;;;;;;12.50;12.10;;;13.00;99.90;;;;;;5010702;28;20846;-67
2021/11/01 09:23:50;;;;;;;14.07;13.20;;;12.90;99.90;;;;;;5012767;28;21011;-67
2021/11/01 09:26:25;;;;;;;13.27;12.67;;;12.70;99.90;;;;;;5017997;28;20452;-67
2021/11/01 09:28:57;;;;;;;12.87;11.93;;;12.70;99.90;;;;;;5024639;28;20448;-66
2021/11/01 09:36:56;;;;;;;13.07;12.43;;;12.80;99.90;;;;;;5005978;28;20821;-67
2021/11/01 09:39:46;;;;;;;14.47;13.87;;;13.00;99.90;;;;;;5005266;28;20486;-67
2021/11/01 09:42:14;;;;;;;14.23;13.63;;;13.10;99.90;;;;;;5004794;28;20449;-66
2021/11/01 09:44:41;;;;;;;14.80;14.00;;;13.40;99.90;;;;;;5007435;28;20557;-67
2021/11/01 09:47:08;;;;;;;14.93;14.43;;;13.40;99.90;;;;;;5022535;28;20480;-66
2021/11/01 09:49:35;;;;;;;15.90;15.10;;;13.60;99.90;;;;;;5023976;28;20457;-67
2021/11/01 09:52:08;;;;;;;16.13;15.33;;;13.70;99.90;;;;;;5005039;28;20453;-67
2021/11/01 09:54:37;;;;;;;16.13;15.23;;;13.70;99.90;;;;;;5010664;28;20481;-66
2021/11/01 09:57:09;;;;;;;16.20;15.47;;;13.70;99.90;;;;;;5027184;28;20969;-66
2021/11/01 09:59:38;;;;;;;16.53;15.83;;;13.60;99.90;;;;;;5030437;28;20492;-66
2021/11/01 10:02:07;;;;;;;16.60;15.83;;;13.60;99.90;;;;;;5016546;28;20446;-67
2021/11/01 10:04:36;;;;;;;16.70;15.77;;;13.50;99.90;;;;;;5011948;28;20453;-66
2021/11/01 10:07:19;;;;;;;16.00;15.20;;;13.50;99.90;;;;;;5006500;28;20474;-66
2021/11/01 10:09:47;;;;;;;17.47;16.40;;;13.70;99.90;;;;;;5006485;28;20468;-65
2021/11/01 10:12:19;;;;;;;16.20;15.50;;;13.60;99.90;;;;;;5030332;28;21025;-65
2021/11/01 10:14:51;;;;;;;16.63;15.83;;;13.70;99.90;;;;;;5031077;28;20463;-65
2021/11/01 10:17:34;;;;;;;17.10;16.20;;;13.80;99.90;;;;;;5029771;28;20469;-65
2021/11/01 10:20:01;;;;;;;16.50;15.80;;;13.90;99.90;;;;;;5029156;28;20485;-65
2021/11/01 10:22:36;;;;;;;16.63;16.03;;;14.00;99.90;;;;;;4991160;28;20511;-66
2021/11/01 10:25:06;;;;;;;17.93;16.73;;;14.10;99.90;;;;;;4990939;28;20586;-66
2021/11/01 10:27:34;;;;;;;16.80;16.20;;;14.00;99.90;;;;;;5010093;28;20482;-66
2021/11/01 10:30:04;;;;;;;17.80;17.10;;;14.20;99.90;;;;;;5010413;28;20548;-65
2021/11/01 10:32:34;;;;;;;19.57;18.37;;;14.30;99.90;;;;;;4987330;28;20443;-66
2021/11/01 10:35:10;;;;;;;18.07;17.10;;;14.20;99.90;;;;;;4987288;28;21159;-65
2021/11/01 10:37:42;;;;;;;17.07;16.47;;;14.10;99.90;;;;;;4989274;28;20482;-66
2021/11/01 10:40:10;;;;;;;18.43;17.60;;;14.10;99.90;;;;;;5010665;28;20549;-65
2021/11/01 10:42:44;;;;;;;18.30;17.40;;;14.20;99.90;;;;;;5027342;28;20548;-66
2021/11/01 10:45:23;;;;;;;18.80;17.97;;;14.60;99.90;;;;;;5026317;28;20926;-68
2021/11/01 10:59:09;;;;;;;19.63;18.73;;;15.70;99.90;;;;;;5030769;28;20432;-64
2021/11/01 11:12:52;;;;;;;21.10;20.20;;;18.00;99.90;;;;;;5025423;28;20464;-66
2021/11/01 11:15:21;;;;;;;21.20;19.97;;;18.10;99.30;;;;;;5028683;28;20479;-64
2021/11/01 11:18:03;;;;;;;19.90;19.10;;;18.40;98.70;;;;;;4991139;28;20961;-66
2021/11/01 11:20:49;;;;;;;19.80;19.00;;;19.90;93.80;;;;;;4993771;28;20483;-65
2021/11/01 11:49:11;;;;;;;21.10;20.30;;;24.50;56.80;;;;;;5002826;28;20462;-65
2021/11/01 11:51:40;;;;;;;20.00;19.30;;;24.60;55.10;;;;;;5014561;28;20520;-65
2021/11/01 11:54:08;;;;;;;20.23;19.50;;;24.20;53.80;;;;;;5035462;28;20449;-65
2021/11/01 11:56:37;;;;;;;20.83;20.00;;;23.40;54.10;;;;;;5038859;28;20812;-67
2021/11/01 11:59:10;;;;;;;20.90;20.10;;;23.70;53.90;;;;;;5037648;28;20449;-65
2021/11/01 12:01:38;;;;;;;21.33;20.50;;;24.10;53.80;;;;;;5030455;28;20496;-65
2021/11/01 12:04:07;;;;;;;21.27;20.40;;;23.80;53.50;;;;;;5019723;28;20818;-66
2021/11/01 12:06:49;;;;;;;20.83;20.10;;;23.70;52.00;;;;;;5021669;28;20446;-66
2021/11/01 12:09:22;;;;;;;21.10;20.20;;;23.20;51.00;;;;;;5020023;28;20450;-65
2021/11/01 12:17:32;;;;;;;21.27;20.47;;;23.90;52.70;;;;;;5019525;28;20469;-64
2021/11/01 12:20:04;;;;;;;22.27;21.07;;;23.60;51.50;;;;;;5018129;28;20495;-65
2021/11/01 12:22:36;;;;;;;21.20;20.30;;;22.80;52.80;;;;;;5015484;28;20472;-65
2021/11/01 12:25:07;;;;;;;21.30;20.40;;;22.60;52.80;;;;;;5015650;28;20899;-65
2021/11/01 12:27:39;;;;;;;20.93;20.10;;;22.50;53.80;;;;;;4997594;28;20844;-64
2021/11/01 12:30:12;;;;;;;21.90;21.10;;;22.40;53.90;;;;;;5014429;28;20442;-63
2021/11/01 12:32:40;;;;;;;22.10;21.20;;;24.30;51.80;;;;;;5014250;28;20504;-64
2021/11/01 12:35:13;;;;;;;20.70;19.90;;;24.60;49.90;;;;;;5014644;28;20450;-64
2021/11/01 12:37:44;;;;;;;21.00;20.00;;;23.50;50.10;;;;;;5028567;28;20986;-63
2021/11/01 12:40:21;;;;;;;20.50;19.73;;;22.80;51.60;;;;;;5034335;28;20554;-63
2021/11/01 12:42:55;;;;;;;20.90;20.10;;;21.60;52.50;;;;;;5018958;28;20777;-63
2021/11/01 12:45:55;;;;;;;21.83;20.57;;;20.90;53.60;;;;;;5014237;28;20539;-63
2021/11/01 12:57:02;;;;;;;20.40;19.60;;;21.50;55.80;;;;;;4915692;29;21043;-64
2021/11/01 12:59:39;;;;;;;20.40;19.70;;;21.30;55.00;;;;;;4983052;28;20458;-64
2021/11/01 13:02:10;;;;;;;21.00;19.97;;;21.70;54.50;;;;;;5003342;28;20435;-64
2021/11/01 13:04:38;;;;;;;20.90;20.10;;;22.70;53.50;;;;;;5014233;28;20449;-65
2021/11/01 13:07:15;;;;;;;20.93;19.97;;;23.00;52.80;;;;;;5012474;28;20505;-65
2021/11/01 13:09:45;;;;;;;20.57;19.77;;;21.80;51.90;;;;;;5013555;28;20485;-63
2021/11/01 13:12:35;;;;;;;21.33;20.30;;;20.90;54.40;;;;;;5013970;28;20673;-65
2021/11/01 13:18:11;;;;;;;21.30;20.07;;;21.40;55.30;;;;;;4990824;28;20454;-66
2021/11/01 13:20:41;;;;;;;21.73;20.70;;;23.50;53.40;;;;;;5013650;28;20478;-65
2021/11/01 13:23:09;;;;;;;20.67;19.77;;;25.20;50.50;;;;;;5013748;28;20450;-62
2021/11/01 13:25:58;;;;;;;20.73;19.93;;;24.90;47.80;;;;;;5013788;28;20446;-62
2021/11/01 13:28:50;;;;;;;20.67;19.50;;;22.70;49.20;;;;;;5013242;28;20974;-64
2021/11/01 13:37:10;;;;;;;21.10;20.20;;;24.00;48.70;;;;;;5013620;28;20496;-65
2021/11/01 13:39:37;;;;;;;21.50;20.50;;;24.30;49.80;;;;;;5013302;28;20457;-62
2021/11/01 13:42:10;;;;;;;21.43;20.63;;;26.40;47.30;;;;;;5013254;28;20485;-65
2021/11/01 13:44:37;;;;;;;20.67;19.97;;;26.90;45.40;;;;;;5013477;28;20450;-65
2021/11/01 13:47:06;;;;;;;21.77;20.97;;;25.20;45.30;;;;;;5013133;28;20462;-64
2021/11/01 13:49:36;;;;;;;21.23;20.13;;;23.80;45.00;;;;;;5013023;28;20456;-64
2021/11/01 13:52:20;;;;;;;20.97;20.27;;;24.20;47.30;;;;;;5013182;28;20492;-63
2021/11/01 13:55:00;;;;;;;19.90;19.30;;;25.80;45.60;;;;;;5013166;28;20469;-63
2021/11/01 13:57:28;;;;;;;20.53;19.50;;;26.10;43.90;;;;;;5013158;28;20569;-65
2021/11/01 14:00:09;;;;;;;20.80;20.00;;;25.50;44.40;;;;;;5012753;28;20565;-64
2021/11/01 14:11:09;;;;;;;20.40;19.50;;;22.20;49.40;;;;;;5013122;28;20421;-65
2021/11/01 14:13:51;;;;;;;19.97;19.10;;;21.30;50.70;;;;;;5012863;28;20461;-64
2021/11/01 14:16:26;;;;;;;20.10;19.40;;;20.30;51.90;;;;;;5012720;28;20481;-64
2021/11/01 14:27:31;;;;;;;20.07;19.10;;;18.60;58.10;;;;;;5023887;28;20472;-66
2021/11/01 14:36:06;;;;;;;19.00;18.10;;;17.90;64.10;;;;;;5013861;28;20433;-64
2021/11/01 14:58:44;;;;;;;19.70;18.70;;;16.80;74.60;;;;;;5011960;28;20461;-55
2021/11/01 15:01:36;;;;;;;19.47;18.40;;;16.50;78.60;;;;;;5012067;28;20497;-65
2021/11/01 15:10:04;;;;;;;19.20;18.23;;;16.70;86.30;;;;;;5011750;28;20599;-65
2021/11/01 15:15:33;;;;;;;18.37;17.50;;;16.50;89.70;;;;;;5011710;28;20457;-65
2021/11/01 15:21:03;;;;;;;17.80;17.20;;;16.30;91.70;;;;;;4964786;29;20983;-66
2021/11/01 15:29:33;;;;;;;18.90;17.77;;;16.00;93.30;;;;;;4977667;28;20483;-63
2021/11/01 16:18:50;;;;;;;17.50;16.57;;;13.30;99.90;;;;;;4990760;28;20441;-59
2021/11/01 16:21:18;;;;;;;17.50;16.47;;;13.20;99.90;;;;;;5010970;28;20488;-61
2021/11/01 16:23:45;;;;;;;17.87;17.10;;;13.10;99.90;;;;;;5011066;28;20981;-59
2021/11/01 16:26:23;;;;;;;17.47;16.90;;;13.00;99.90;;;;;;5011117;28;20532;-59
2021/11/01 16:28:54;;;;;;;17.40;16.80;;;12.90;99.90;;;;;;5010987;28;20445;-59
2021/11/01 16:31:31;;;;;;;16.70;16.00;;;12.90;99.90;;;;;;5011269;28;20819;-62
2021/11/01 16:34:06;;;;;;;17.00;16.30;;;12.80;99.90;;;;;;5011190;28;20445;-62
2021/11/01 16:37:11;;;;;;;17.27;16.40;;;12.80;99.90;;;;;;5010995;28;20445;-61
2021/11/01 16:39:47;;;;;;;17.30;16.43;;;12.80;99.90;;;;;;5010898;28;20452;-62
2021/11/01 16:42:16;;;;;;;16.47;15.97;;;12.80;99.90;;;;;;5013684;28;20808;-60
2021/11/01 16:44:43;;;;;;;16.50;15.90;;;12.90;99.90;;;;;;5014603;28;20816;-63
2021/11/01 16:47:11;;;;;;;16.50;15.80;;;12.90;99.90;;;;;;5014489;28;20465;-63
2021/11/01 16:49:40;;;;;;;16.47;15.77;;;12.90;99.90;;;;;;5014303;28;20872;-61
2021/11/01 16:52:15;;;;;;;17.17;16.53;;;12.90;99.90;;;;;;5014379;28;20537;-61
2021/11/01 16:54:43;;;;;;;16.83;16.13;;;12.90;99.90;;;;;;5014438;28;20860;-60
2021/11/01 16:57:17;;;;;;;17.27;16.57;;;12.80;99.90;;;;;;5014029;28;20524;-61
2021/11/01 16:59:53;;;;;;;17.53;16.63;;;12.80;99.90;;;;;;5014069;28;20481;-60
2021/11/01 17:02:38;;;;;;;17.50;16.70;;;12.70;99.90;;;;;;5014110;28;21029;-60
2021/11/01 17:05:14;;;;;;;16.50;15.90;;;12.70;99.90;;;;;;5014145;28;20445;-63
2021/11/01 17:07:56;;;;;;;17.43;16.73;;;12.60;99.90;;;;;;5014114;28;20861;-63
2021/11/01 17:21:36;;;;;;;16.10;15.50;;;12.10;99.90;;;;;;5013769;28;20480;-61
2021/11/01 17:24:15;;;;;;;16.47;15.67;;;12.00;99.90;;;;;;5013936;28;20449;-61
2021/11/01 17:26:59;;;;;;;17.20;16.30;;;11.90;99.90;;;;;;5013578;28;20954;-58
2021/11/01 17:29:51;;;;;;;17.37;16.33;;;11.90;99.90;;;;;;5013956;28;20453;-63
2021/11/01 17:35:21;;;;;;;16.53;15.77;;;11.80;99.90;;;;;;5016232;28;20849;-63
2021/11/01 17:38:20;;;;;;;16.77;15.87;;;11.70;99.90;;;;;;5013446;28;20523;-62
2021/11/01 18:39:28;;;;;;;15.07;14.33;;;10.90;99.90;;;;;;5033282;28;20789;-66
2021/11/01 18:42:03;;;;;;;14.77;13.63;;;10.90;99.90;;;;;;5033725;28;20849;-66
2021/11/01 18:52:58;;;;;;;13.97;13.37;;;10.80;99.90;;;;;;5032326;28;20455;-64
2021/11/01 18:55:26;;;;;;;14.70;13.80;;;10.70;99.90;;;;;;5032210;28;20445;-64
2021/11/01 18:57:54;;;;;;;14.37;13.67;;;10.70;99.90;;;;;;5031911;28;20556;-64
2021/11/01 19:00:22;;;;;;;14.23;13.70;;;10.80;99.90;;;;;;5031838;28;20443;-64
2021/11/01 19:02:49;;;;;;;13.90;13.30;;;10.80;99.90;;;;;;5031989;28;20485;-64
2021/11/01 19:05:23;;;;;;;14.97;14.30;;;10.80;99.90;;;;;;5030939;28;20488;-64
2021/11/01 19:07:58;;;;;;;15.90;14.87;;;10.80;99.90;;;;;;5031772;28;20463;-62
2021/11/01 20:13:52;;;;;;;4.67;3.07;;;12.20;99.90;;;;;;5090725;27;21189;-50
2021/11/01 21:25:54;;;;;;;8.00;7.80;;;21.90;99.90;;;;;;4995024;28;20426;-49
2021/11/01 21:28:22;;;;;;;7.57;7.37;;;21.80;99.90;;;;;;4994947;28;20875;-51
2021/11/01 21:30:50;;;;;;;7.40;7.20;;;21.80;99.90;;;;;;4994706;28;20453;-49
2021/11/01 21:33:19;;;;;;;7.40;7.20;;;21.80;99.90;;;;;;4994801;28;20851;-52
2021/11/01 21:35:49;;;;;;;8.23;8.00;;;21.70;99.90;;;;;;4994579;28;20451;-53
2021/11/01 21:38:16;;;;;;;8.33;8.13;;;21.70;99.90;;;;;;4994691;28;20478;-54
2021/11/01 21:40:44;;;;;;;7.60;7.40;;;21.70;99.90;;;;;;4994607;28;20812;-53
2021/11/01 21:43:11;;;;;;;8.10;7.80;;;21.60;99.90;;;;;;4994626;28;20443;-49
2021/11/01 21:45:38;;;;;;;7.87;7.67;;;21.60;99.90;;;;;;4994658;28;20443;-53
2021/11/01 21:48:05;;;;;;;8.27;8.03;;;21.60;99.90;;;;;;4994539;28;20477;-48
2021/11/01 21:50:32;;;;;;;6.97;6.87;;;21.50;99.90;;;;;;4994306;28;20447;-48
2021/11/01 21:53:02;;;;;;;7.80;7.60;;;21.50;99.90;;;;;;4994498;28;20513;-51
2021/11/01 21:55:30;;;;;;;7.57;7.37;;;21.50;99.90;;;;;;4994512;28;20450;-52
2021/11/01 21:57:59;;;;;;;7.60;7.40;;;21.50;99.90;;;;;;4994288;28;20529;-53
2021/11/01 22:17:15;;;;;;;7.17;6.97;;;21.20;99.90;;;;;;4994075;28;20439;-52
2021/11/01 22:19:53;;;;;;;7.93;7.73;;;21.20;99.90;;;;;;4993797;28;20454;-53
2021/11/01 22:25:10;;;;;;;7.30;7.10;;;21.10;99.90;;;;;;4985137;28;20448;-48
2021/11/01 22:33:32;;;;;;;8.07;7.83;;;20.90;99.90;;;;;;4993819;28;20474;-51
2021/11/01 22:38:55;;;;;;;7.60;7.30;;;20.90;99.90;;;;;;4993596;28;20947;-56